Time;durP1;ratioP1;P1;durP2;ratioP2;P2;SDS_P1;SDS_P2;PMS_P1;PMS_P2;Temp;Humidity;BMP_temperature;BMP_pressure;BME280_temperature;BME280_humidity;BME280_pressure;Samples;Min_cycle;Max_cycle;Signal;HPM_P1;HPM_P2
2023/08/01 00:04:49;;;;;;;0.10;0.10;;;;;;;;;;10436299;28;20013;-76
2023/08/01 00:09:50;;;;;;;0.00;0.00;;;;;;;;;;10435950;28;20021;-76
2023/08/01 00:14:50;;;;;;;0.00;0.00;;;;;;;;;;10454068;28;20102;-76
2023/08/01 00:19:50;;;;;;;0.10;0.10;;;;;;;;;;10435578;28;20092;-76
2023/08/01 00:24:50;;;;;;;0.00;0.00;;;;;;;;;;10453281;28;20028;-76
2023/08/01 00:29:50;;;;;;;0.10;0.10;;;;;;;;;;10452677;28;20263;-76
2023/08/01 00:34:51;;;;;;;0.10;0.10;;;;;;;;;;10452790;28;20297;-76
2023/08/01 00:39:52;;;;;;;0.10;0.10;;;;;;;;;;10452713;28;20031;-76
2023/08/01 00:44:54;;;;;;;0.10;0.10;;;;;;;;;;10434964;28;20027;-76
2023/08/01 00:49:54;;;;;;;0.00;0.00;;;;;;;;;;10509387;22;20058;-75
2023/08/01 00:54:54;;;;;;;0.05;0.05;;;;;;;;;;10525548;28;20123;-77
2023/08/01 00:59:54;;;;;;;0.10;0.10;;;;;;;;;;10504878;28;20062;-77
2023/08/01 01:04:54;;;;;;;0.10;0.10;;;;;;;;;;10496479;28;20452;-75
2023/08/01 01:09:55;;;;;;;0.10;0.10;;;;;;;;;;10489760;28;20111;-76
2023/08/01 01:14:55;;;;;;;0.10;0.10;;;;;;;;;;10523749;28;20012;-78
2023/08/01 01:19:55;;;;;;;0.10;0.10;;;;;;;;;;10510684;28;20020;-77
2023/08/01 01:24:55;;;;;;;0.10;0.10;;;;;;;;;;10514071;28;20121;-76
2023/08/01 01:29:56;;;;;;;0.10;0.10;;;;;;;;;;10497055;28;20227;-78
2023/08/01 01:34:56;;;;;;;0.00;0.00;;;;;;;;;;10491605;28;20353;-78
2023/08/01 01:39:57;;;;;;;0.10;0.10;;;;;;;;;;10508789;28;20016;-77
2023/08/01 01:44:57;;;;;;;0.10;0.10;;;;;;;;;;10522127;28;20055;-78
2023/08/01 01:49:57;;;;;;;0.10;0.10;;;;;;;;;;10496898;28;20037;-77
2023/08/01 01:54:57;;;;;;;0.10;0.10;;;;;;;;;;10506378;28;20012;-77
2023/08/01 01:59:57;;;;;;;0.10;0.10;;;;;;;;;;10519700;28;20479;-78
2023/08/01 02:04:57;;;;;;;0.10;0.10;;;;;;;;;;10496854;28;20058;-76
2023/08/01 02:09:58;;;;;;;0.10;0.10;;;;;;;;;;10492711;28;20024;-77
2023/08/01 02:14:58;;;;;;;0.00;0.00;;;;;;;;;;10531854;28;20020;-77
2023/08/01 02:19:58;;;;;;;0.03;0.03;;;;;;;;;;10522273;28;20494;-77
2023/08/01 02:24:58;;;;;;;0.00;0.00;;;;;;;;;;10519326;28;20415;-77
2023/08/01 02:29:59;;;;;;;0.10;0.10;;;;;;;;;;10528358;28;20103;-77
2023/08/01 02:34:59;;;;;;;0.10;0.10;;;;;;;;;;10513791;28;20016;-77
2023/08/01 02:39:59;;;;;;;0.00;0.00;;;;;;;;;;10515215;28;20096;-78
2023/08/01 02:44:59;;;;;;;0.00;0.00;;;;;;;;;;10533985;28;20396;-78
2023/08/01 02:49:59;;;;;;;0.00;0.00;;;;;;;;;;10534936;28;20023;-78
2023/08/01 02:54:59;;;;;;;0.10;0.10;;;;;;;;;;10502805;28;20027;-78
2023/08/01 03:00:00;;;;;;;0.10;0.10;;;;;;;;;;10537094;28;20012;-78
2023/08/01 03:05:00;;;;;;;0.00;0.00;;;;;;;;;;10506917;28;20103;-78
2023/08/01 03:10:00;;;;;;;0.10;0.10;;;;;;;;;;10532573;28;20028;-78
2023/08/01 03:15:01;;;;;;;0.00;0.00;;;;;;;;;;10536401;28;20080;-78
2023/08/01 03:20:01;;;;;;;0.00;0.00;;;;;;;;;;10527104;28;20111;-78
2023/08/01 03:25:06;;;;;;;0.00;0.00;;;;;;;;;;10520889;28;20107;-78
2023/08/01 03:30:08;;;;;;;0.00;0.00;;;;;;;;;;10526124;28;20420;-78
2023/08/01 03:35:08;;;;;;;0.05;0.05;;;;;;;;;;10530645;28;20091;-78
2023/08/01 03:40:09;;;;;;;0.10;0.10;;;;;;;;;;10520243;28;20036;-78
2023/08/01 03:45:10;;;;;;;0.00;0.00;;;;;;;;;;10509946;28;20026;-79
2023/08/01 03:50:11;;;;;;;0.10;0.10;;;;;;;;;;10520342;28;20028;-78
2023/08/01 03:55:12;;;;;;;0.10;0.10;;;;;;;;;;10520099;28;20016;-78
2023/08/01 04:00:18;;;;;;;0.08;0.08;;;;;;;;;;10507331;28;20039;-78
2023/08/01 04:05:18;;;;;;;0.10;0.10;;;;;;;;;;10505908;28;20020;-77
2023/08/01 04:10:18;;;;;;;0.10;0.10;;;;;;;;;;10528179;28;20016;-78
2023/08/01 04:15:19;;;;;;;0.10;0.10;;;;;;;;;;10519438;28;20028;-78
2023/08/01 04:20:19;;;;;;;0.10;0.10;;;;;;;;;;10520575;28;20019;-78
2023/08/01 04:25:19;;;;;;;0.10;0.10;;;;;;;;;;10491446;28;20012;-78
2023/08/01 04:30:19;;;;;;;0.00;0.00;;;;;;;;;;10519389;28;20085;-77
2023/08/01 04:35:19;;;;;;;0.00;0.00;;;;;;;;;;10517345;28;20055;-78
2023/08/01 04:40:20;;;;;;;0.03;0.03;;;;;;;;;;10496579;28;20034;-78
2023/08/01 04:45:20;;;;;;;0.10;0.10;;;;;;;;;;10525853;28;20051;-79
2023/08/01 04:50:20;;;;;;;0.08;0.08;;;;;;;;;;10506092;28;20106;-77
2023/08/01 04:55:20;;;;;;;0.00;0.00;;;;;;;;;;10493339;28;20021;-77
2023/08/01 05:00:20;;;;;;;0.10;0.10;;;;;;;;;;10519900;28;20013;-77
2023/08/01 05:05:21;;;;;;;0.10;0.10;;;;;;;;;;10509836;28;20048;-79
2023/08/01 05:10:22;;;;;;;0.00;0.00;;;;;;;;;;10509944;28;20032;-79
2023/08/01 05:15:22;;;;;;;0.10;0.10;;;;;;;;;;10489647;28;20024;-78
2023/08/01 05:20:22;;;;;;;0.00;0.00;;;;;;;;;;10504134;28;20096;-78
2023/08/01 05:25:22;;;;;;;0.00;0.00;;;;;;;;;;10517112;28;20078;-78
2023/08/01 05:30:23;;;;;;;0.10;0.10;;;;;;;;;;10511122;28;20043;-79
2023/08/01 05:35:23;;;;;;;0.10;0.10;;;;;;;;;;10516468;28;20023;-79
2023/08/01 05:40:24;;;;;;;0.00;0.00;;;;;;;;;;10496582;28;20024;-79
2023/08/01 05:45:24;;;;;;;0.10;0.10;;;;;;;;;;10524306;28;20016;-79
2023/08/01 05:50:24;;;;;;;0.08;0.08;;;;;;;;;;10499097;28;20505;-79
2023/08/01 05:55:24;;;;;;;0.10;0.10;;;;;;;;;;10512603;28;20473;-79
2023/08/01 06:00:24;;;;;;;0.00;0.00;;;;;;;;;;10499130;28;20015;-80
2023/08/01 06:05:25;;;;;;;0.10;0.10;;;;;;;;;;10511650;28;20057;-79
2023/08/01 06:10:25;;;;;;;0.10;0.10;;;;;;;;;;10520202;28;20020;-79
2023/08/01 06:15:25;;;;;;;0.10;0.10;;;;;;;;;;10511738;28;20035;-79
2023/08/01 06:20:25;;;;;;;0.10;0.10;;;;;;;;;;10520417;28;20107;-78
2023/08/01 06:25:25;;;;;;;0.00;0.00;;;;;;;;;;10513514;28;20021;-78
2023/08/01 06:30:26;;;;;;;0.10;0.10;;;;;;;;;;10518171;28;20107;-79
2023/08/01 06:35:26;;;;;;;0.10;0.10;;;;;;;;;;10519926;28;20542;-79
2023/08/01 06:40:26;;;;;;;0.10;0.10;;;;;;;;;;10505974;28;20103;-79
2023/08/01 06:45:26;;;;;;;0.00;0.00;;;;;;;;;;10508887;28;20020;-80
2023/08/01 06:50:26;;;;;;;0.00;0.00;;;;;;;;;;10480245;22;20045;-75
2023/08/01 06:55:27;;;;;;;0.08;0.08;;;;;;;;;;10372993;28;20025;-75
2023/08/01 07:00:27;;;;;;;0.10;0.10;;;;;;;;;;10386751;28;20500;-74
2023/08/01 07:05:27;;;;;;;0.00;0.00;;;;;;;;;;10378934;28;20076;-75
2023/08/01 07:10:27;;;;;;;0.00;0.00;;;;;;;;;;10374598;28;20108;-75
2023/08/01 07:15:28;;;;;;;0.00;0.00;;;;;;;;;;10387621;28;20028;-74
2023/08/01 07:20:28;;;;;;;0.00;0.00;;;;;;;;;;10383480;28;20021;-75
2023/08/01 07:25:28;;;;;;;0.00;0.00;;;;;;;;;;10373657;28;20041;-75
2023/08/01 07:30:28;;;;;;;0.00;0.00;;;;;;;;;;10372511;28;20469;-75
2023/08/01 07:35:28;;;;;;;0.00;0.00;;;;;;;;;;10377197;28;20492;-75
2023/08/01 07:40:29;;;;;;;0.00;0.00;;;;;;;;;;10375345;28;20384;-74
2023/08/01 07:45:29;;;;;;;0.03;0.03;;;;;;;;;;10372224;28;20076;-74
2023/08/01 07:50:29;;;;;;;0.00;0.00;;;;;;;;;;10374570;28;20080;-74
2023/08/01 07:55:33;;;;;;;0.00;0.00;;;;;;;;;;10383871;28;20022;-74
2023/08/01 08:00:34;;;;;;;0.10;0.10;;;;;;;;;;10392260;28;20022;-75
2023/08/01 08:05:38;;;;;;;0.00;0.00;;;;;;;;;;10394522;28;20240;-75
2023/08/01 08:10:38;;;;;;;0.00;0.00;;;;;;;;;;10370864;28;20024;-75
2023/08/01 08:15:38;;;;;;;0.00;0.00;;;;;;;;;;10383644;28;20097;-74
2023/08/01 08:20:43;;;;;;;0.00;0.00;;;;;;;;;;10376167;28;20022;-74
2023/08/01 08:25:47;;;;;;;0.00;0.00;;;;;;;;;;10377312;28;20021;-75
2023/08/01 08:30:47;;;;;;;0.00;0.00;;;;;;;;;;10382752;28;20033;-75
2023/08/01 08:35:47;;;;;;;0.00;0.00;;;;;;;;;;10393811;28;20026;-74
2023/08/01 08:41:00;;;;;;;0.00;0.00;;;;;;;;;;10379671;28;20032;-74
2023/08/01 08:46:01;;;;;;;0.00;0.00;;;;;;;;;;10391442;28;20052;-75
2023/08/01 08:51:01;;;;;;;0.00;0.00;;;;;;;;;;10382353;28;20065;-75
2023/08/01 08:56:02;;;;;;;0.10;0.10;;;;;;;;;;10351914;28;20034;-76
2023/08/01 09:01:02;;;;;;;0.00;0.00;;;;;;;;;;10382120;28;20025;-76
2023/08/01 09:06:05;;;;;;;0.00;0.00;;;;;;;;;;10373448;28;20113;-77
2023/08/01 09:11:05;;;;;;;0.00;0.00;;;;;;;;;;10377855;28;20029;-76
2023/08/01 09:16:06;;;;;;;0.10;0.10;;;;;;;;;;10382312;28;20033;-76
2023/08/01 09:21:06;;;;;;;0.00;0.00;;;;;;;;;;10379504;28;20029;-76
2023/08/01 09:26:13;;;;;;;0.00;0.00;;;;;;;;;;10375167;28;20057;-76
2023/08/01 09:31:13;;;;;;;0.03;0.03;;;;;;;;;;10389249;28;20088;-76
2023/08/01 09:36:20;;;;;;;0.00;0.00;;;;;;;;;;10381215;28;20022;-76
2023/08/01 09:41:20;;;;;;;0.10;0.10;;;;;;;;;;10374427;28;20082;-76
2023/08/01 09:46:20;;;;;;;0.00;0.00;;;;;;;;;;10377337;28;20067;-77
2023/08/01 09:51:20;;;;;;;0.00;0.00;;;;;;;;;;10381887;28;20484;-76
2023/08/01 09:56:25;;;;;;;0.00;0.00;;;;;;;;;;10372201;28;20440;-75
2023/08/01 10:01:26;;;;;;;0.00;0.00;;;;;;;;;;10373750;28;20017;-76
2023/08/01 10:06:28;;;;;;;0.00;0.00;;;;;;;;;;10381710;28;20033;-75
2023/08/01 10:11:29;;;;;;;0.00;0.00;;;;;;;;;;10371780;28;20048;-75
2023/08/01 10:16:30;;;;;;;0.10;0.10;;;;;;;;;;10359866;28;20641;-76
2023/08/01 10:21:30;;;;;;;0.00;0.00;;;;;;;;;;10370095;28;20125;-75
2023/08/01 10:26:31;;;;;;;0.10;0.10;;;;;;;;;;10369801;28;20017;-76
2023/08/01 10:31:31;;;;;;;0.00;0.00;;;;;;;;;;10368839;28;20052;-75
2023/08/01 10:36:32;;;;;;;0.00;0.00;;;;;;;;;;10368249;28;20030;-75
2023/08/01 10:41:34;;;;;;;0.00;0.00;;;;;;;;;;10377150;28;20290;-75
2023/08/01 10:46:47;;;;;;;0.00;0.00;;;;;;;;;;10358097;28;20021;-75
2023/08/01 10:51:47;;;;;;;;;;;;;;;;;;10374914;28;20611;-76
2023/08/01 10:56:48;;;;;;;0.03;0.03;;;;;;;;;;10375691;28;20011;-76
2023/08/01 11:01:49;;;;;;;0.10;0.10;;;;;;;;;;10374034;28;20464;-76
2023/08/01 11:06:50;;;;;;;0.00;0.00;;;;;;;;;;10380297;28;20029;-76
2023/08/01 11:11:57;;;;;;;0.00;0.00;;;;;;;;;;10374017;28;20117;-75
2023/08/01 11:16:59;;;;;;;0.08;0.08;;;;;;;;;;10372873;28;20026;-76
2023/08/01 11:22:08;;;;;;;0.00;0.00;;;;;;;;;;10374780;28;20022;-76
2023/08/01 11:27:10;;;;;;;0.10;0.10;;;;;;;;;;10384998;28;20018;-76
2023/08/01 11:32:10;;;;;;;0.00;0.00;;;;;;;;;;10384331;28;20137;-76
2023/08/01 11:37:10;;;;;;;0.10;0.10;;;;;;;;;;10373579;28;20473;-76
2023/08/01 11:42:15;;;;;;;0.10;0.10;;;;;;;;;;10384475;28;20025;-76
2023/08/01 11:47:16;;;;;;;0.00;0.00;;;;;;;;;;10383544;28;20033;-76
2023/08/01 11:52:26;;;;;;;0.00;0.00;;;;;;;;;;10389705;28;20033;-76
2023/08/01 11:57:26;;;;;;;0.00;0.00;;;;;;;;;;10387330;28;20053;-76
2023/08/01 12:02:27;;;;;;;0.00;0.00;;;;;;;;;;10381269;28;20039;-75
2023/08/01 12:07:29;;;;;;;0.00;0.00;;;;;;;;;;10385242;28;20029;-75
2023/08/01 12:12:29;;;;;;;0.00;0.00;;;;;;;;;;10378388;28;20041;-75
2023/08/01 12:17:31;;;;;;;0.10;0.10;;;;;;;;;;10379638;28;20480;-76
2023/08/01 12:22:31;;;;;;;0.00;0.00;;;;;;;;;;10385770;28;20044;-75
2023/08/01 12:27:31;;;;;;;0.00;0.00;;;;;;;;;;10360514;28;20022;-75
2023/08/01 12:32:31;;;;;;;0.10;0.10;;;;;;;;;;10386318;28;20021;-76
2023/08/01 12:37:31;;;;;;;0.00;0.00;;;;;;;;;;10382184;28;20104;-76
2023/08/01 12:42:32;;;;;;;0.00;0.00;;;;;;;;;;10380066;28;20033;-76
2023/08/01 12:47:32;;;;;;;0.10;0.10;;;;;;;;;;10377878;28;20487;-76
2023/08/01 12:52:32;;;;;;;0.00;0.00;;;;;;;;;;10404085;23;20511;-77
2023/08/01 12:57:33;;;;;;;0.00;0.00;;;;;;;;;;10403002;28;20390;-78
2023/08/01 13:02:33;;;;;;;0.10;0.10;;;;;;;;;;10416313;28;20476;-77
2023/08/01 13:07:34;;;;;;;0.00;0.00;;;;;;;;;;10390789;28;20067;-77
2023/08/01 13:12:34;;;;;;;0.00;0.00;;;;;;;;;;10408409;28;20117;-77
2023/08/01 13:17:34;;;;;;;0.10;0.10;;;;;;;;;;10407283;28;20022;-76
2023/08/01 13:22:34;;;;;;;0.00;0.00;;;;;;;;;;10407067;28;20420;-76
2023/08/01 13:27:35;;;;;;;0.00;0.00;;;;;;;;;;10406592;28;20331;-78
2023/08/01 13:32:35;;;;;;;0.00;0.00;;;;;;;;;;10409379;28;20018;-77
2023/08/01 13:37:36;;;;;;;0.00;0.00;;;;;;;;;;10409437;28;20060;-77
2023/08/01 13:42:36;;;;;;;0.00;0.00;;;;;;;;;;10407535;28;20306;-78
2023/08/01 13:47:36;;;;;;;0.08;0.08;;;;;;;;;;10406119;28;20048;-78
2023/08/01 13:52:37;;;;;;;0.10;0.10;;;;;;;;;;10371333;28;1041565;-78
2023/08/01 13:57:37;;;;;;;0.00;0.00;;;;;;;;;;10409362;28;20017;-80
2023/08/01 14:02:37;;;;;;;0.00;0.00;;;;;;;;;;10391608;28;20108;-78
2023/08/01 14:07:38;;;;;;;0.00;0.00;;;;;;;;;;10410795;28;20017;-79
2023/08/01 14:12:38;;;;;;;0.00;0.00;;;;;;;;;;10408871;28;20024;-80
2023/08/01 14:17:38;;;;;;;0.00;0.00;;;;;;;;;;10408575;28;20029;-80
2023/08/01 14:22:38;;;;;;;0.00;0.00;;;;;;;;;;10409991;28;20013;-80
2023/08/01 14:27:38;;;;;;;0.00;0.00;;;;;;;;;;10410368;28;20028;-81
2023/08/01 14:32:38;;;;;;;0.00;0.00;;;;;;;;;;10410806;28;20032;-80
2023/08/01 14:37:42;;;;;;;0.00;0.00;;;;;;;;;;10409874;28;20017;-81
2023/08/01 14:42:42;;;;;;;;;;;;;;;;;;10391916;28;20399;-78
2023/08/01 14:47:42;;;;;;;0.00;0.00;;;;;;;;;;10408015;28;19905;-79
2023/08/01 14:52:43;;;;;;;0.00;0.00;;;;;;;;;;10406748;28;20022;-78
2023/08/01 14:57:43;;;;;;;0.00;0.00;;;;;;;;;;10408216;28;20025;-78
2023/08/01 15:02:43;;;;;;;0.03;0.03;;;;;;;;;;10405800;28;20037;-78
2023/08/01 15:07:43;;;;;;;0.05;0.05;;;;;;;;;;10406109;28;20024;-79
2023/08/01 15:12:43;;;;;;;0.00;0.00;;;;;;;;;;10407553;28;20108;-78
2023/08/01 15:17:44;;;;;;;0.10;0.10;;;;;;;;;;10406873;28;20024;-78
2023/08/01 15:22:44;;;;;;;0.03;0.03;;;;;;;;;;10390022;28;20017;-78
2023/08/01 15:27:44;;;;;;;0.00;0.00;;;;;;;;;;10406462;28;20485;-78
2023/08/01 15:32:44;;;;;;;0.00;0.00;;;;;;;;;;10414860;28;20127;-79
2023/08/01 15:37:44;;;;;;;0.00;0.00;;;;;;;;;;10415910;28;20116;-79
2023/08/01 15:42:44;;;;;;;0.00;0.00;;;;;;;;;;10416763;28;20388;-79
2023/08/01 15:47:45;;;;;;;0.10;0.10;;;;;;;;;;10399054;28;20014;-79
2023/08/01 15:52:45;;;;;;;0.00;0.00;;;;;;;;;;10415446;28;20029;-79
2023/08/01 15:57:45;;;;;;;0.00;0.00;;;;;;;;;;10414728;28;20484;-80
2023/08/01 16:02:45;;;;;;;0.00;0.00;;;;;;;;;;10416372;28;20450;-79
2023/08/01 16:07:45;;;;;;;0.00;0.00;;;;;;;;;;10417047;28;20021;-80
2023/08/01 16:12:45;;;;;;;0.10;0.10;;;;;;;;;;10418163;28;20079;-77
2023/08/01 16:17:46;;;;;;;0.10;0.10;;;;;;;;;;10417221;28;20281;-78
2023/08/01 16:22:46;;;;;;;0.00;0.00;;;;;;;;;;10416404;28;20021;-79
2023/08/01 16:27:46;;;;;;;0.00;0.00;;;;;;;;;;10399480;28;20021;-80
2023/08/01 16:32:47;;;;;;;0.10;0.10;;;;;;;;;;10417700;28;20025;-79
2023/08/01 16:37:47;;;;;;;0.00;0.00;;;;;;;;;;10415641;28;20032;-80
2023/08/01 16:42:47;;;;;;;0.00;0.00;;;;;;;;;;10396757;28;20357;-78
2023/08/01 16:47:47;;;;;;;0.00;0.00;;;;;;;;;;10411098;28;20023;-77
2023/08/01 16:52:48;;;;;;;0.00;0.00;;;;;;;;;;10393950;28;20483;-78
2023/08/01 16:57:48;;;;;;;0.00;0.00;;;;;;;;;;10394452;28;20033;-79
2023/08/01 17:02:48;;;;;;;0.10;0.10;;;;;;;;;;10412152;28;20091;-79
2023/08/01 17:07:48;;;;;;;0.10;0.10;;;;;;;;;;10389859;28;20112;-79
2023/08/01 17:12:48;;;;;;;0.00;0.00;;;;;;;;;;10410890;28;20030;-79
2023/08/01 17:17:49;;;;;;;0.00;0.00;;;;;;;;;;10411838;28;20021;-79
2023/08/01 17:22:50;;;;;;;0.00;0.00;;;;;;;;;;10411546;28;20384;-79
2023/08/01 17:27:52;;;;;;;0.03;0.03;;;;;;;;;;10394374;28;20017;-80
2023/08/01 17:32:52;;;;;;;0.00;0.00;;;;;;;;;;10394258;28;20018;-80
2023/08/01 17:37:52;;;;;;;0.00;0.00;;;;;;;;;;10393501;28;20024;-81
2023/08/01 17:42:55;;;;;;;0.00;0.00;;;;;;;;;;10412830;28;20018;-79
2023/08/01 17:47:55;;;;;;;0.00;0.00;;;;;;;;;;10410393;28;20524;-79
2023/08/01 17:52:55;;;;;;;0.00;0.00;;;;;;;;;;10408499;28;20029;-79
2023/08/01 17:57:55;;;;;;;0.10;0.10;;;;;;;;;;10409123;28;20014;-80
2023/08/01 18:02:56;;;;;;;0.00;0.00;;;;;;;;;;10409654;28;20025;-80
2023/08/01 18:07:56;;;;;;;0.10;0.10;;;;;;;;;;10392550;28;20456;-80
2023/08/01 18:12:56;;;;;;;0.10;0.10;;;;;;;;;;10410675;28;20028;-82
2023/08/01 18:17:56;;;;;;;0.00;0.00;;;;;;;;;;10410597;28;20024;-81
2023/08/01 18:22:57;;;;;;;0.10;0.10;;;;;;;;;;10408121;28;20096;-78
2023/08/01 18:27:57;;;;;;;0.10;0.10;;;;;;;;;;10407259;28;20091;-78
2023/08/01 18:32:57;;;;;;;0.00;0.00;;;;;;;;;;10389759;28;20009;-78
2023/08/01 18:37:57;;;;;;;0.03;0.03;;;;;;;;;;10406486;28;20025;-79
2023/08/01 18:42:58;;;;;;;0.10;0.10;;;;;;;;;;10406671;28;20048;-78
2023/08/01 18:47:58;;;;;;;0.10;0.10;;;;;;;;;;10389649;28;20079;-78
2023/08/01 18:52:58;;;;;;;0.05;0.05;;;;;;;;;;10413155;23;20041;-75
2023/08/01 18:58:01;;;;;;;0.10;0.10;;;;;;;;;;10385874;28;20026;-76
2023/08/01 19:03:02;;;;;;;0.10;0.10;;;;;;;;;;10392962;28;20021;-75
2023/08/01 19:08:03;;;;;;;0.00;0.00;;;;;;;;;;10377971;28;20030;-76
2023/08/01 19:13:04;;;;;;;0.00;0.00;;;;;;;;;;10400602;28;20064;-76
2023/08/01 19:18:04;;;;;;;0.10;0.10;;;;;;;;;;10392502;28;20448;-75
2023/08/01 19:23:04;;;;;;;0.10;0.10;;;;;;;;;;10401124;28;20022;-75
2023/08/01 19:28:04;;;;;;;0.10;0.10;;;;;;;;;;10385162;28;20025;-75
2023/08/01 19:33:04;;;;;;;0.00;0.00;;;;;;;;;;10376608;28;20030;-75
2023/08/01 19:38:04;;;;;;;0.10;0.10;;;;;;;;;;10393426;28;20040;-74
2023/08/01 19:43:05;;;;;;;0.00;0.00;;;;;;;;;;10398827;28;20021;-75
2023/08/01 19:48:05;;;;;;;0.00;0.00;;;;;;;;;;10399872;28;20029;-76
2023/08/01 19:53:06;;;;;;;0.00;0.00;;;;;;;;;;10398555;28;20472;-75
2023/08/01 19:58:06;;;;;;;0.10;0.10;;;;;;;;;;10391153;28;20431;-75
2023/08/01 20:03:07;;;;;;;0.10;0.10;;;;;;;;;;10394025;28;20026;-76
2023/08/01 20:08:07;;;;;;;0.10;0.10;;;;;;;;;;10393864;28;20049;-75
2023/08/01 20:13:07;;;;;;;0.10;0.10;;;;;;;;;;10403748;28;20025;-75
2023/08/01 20:18:07;;;;;;;0.00;0.00;;;;;;;;;;10397771;28;20393;-75
2023/08/01 20:23:07;;;;;;;0.10;0.10;;;;;;;;;;10392403;28;20018;-75
2023/08/01 20:28:08;;;;;;;0.10;0.10;;;;;;;;;;10407998;28;20018;-76
2023/08/01 20:33:08;;;;;;;0.10;0.10;;;;;;;;;;10397352;28;20025;-76
2023/08/01 20:38:08;;;;;;;0.10;0.10;;;;;;;;;;10389479;28;20362;-76
2023/08/01 20:43:08;;;;;;;0.10;0.10;;;;;;;;;;10400065;28;20096;-76
2023/08/01 20:48:08;;;;;;;0.10;0.10;;;;;;;;;;10387037;28;20038;-75
2023/08/01 20:53:09;;;;;;;0.10;0.10;;;;;;;;;;10391781;28;20480;-75
2023/08/01 20:58:09;;;;;;;0.10;0.10;;;;;;;;;;10390997;28;21393;-75
2023/08/01 21:03:09;;;;;;;0.10;0.10;;;;;;;;;;10400030;28;20045;-75
2023/08/01 21:08:09;;;;;;;0.00;0.00;;;;;;;;;;10397850;28;20033;-75
2023/08/01 21:13:09;;;;;;;0.10;0.10;;;;;;;;;;10396289;28;20025;-76
2023/08/01 21:18:09;;;;;;;0.10;0.10;;;;;;;;;;10400042;28;20033;-74
2023/08/01 21:23:10;;;;;;;0.00;0.00;;;;;;;;;;10388889;28;20032;-75
2023/08/01 21:28:10;;;;;;;0.00;0.00;;;;;;;;;;10388109;28;20413;-75
2023/08/01 21:33:10;;;;;;;0.00;0.00;;;;;;;;;;10391472;28;20057;-75
2023/08/01 21:38:10;;;;;;;0.10;0.10;;;;;;;;;;10393902;28;20018;-76
2023/08/01 21:43:10;;;;;;;0.10;0.10;;;;;;;;;;10398912;28;20014;-77
2023/08/01 21:48:11;;;;;;;0.10;0.10;;;;;;;;;;10390206;28;20020;-76
2023/08/01 21:53:11;;;;;;;0.10;0.10;;;;;;;;;;10390649;28;20040;-76
2023/08/01 21:58:12;;;;;;;0.10;0.10;;;;;;;;;;10374598;28;20551;-77
2023/08/01 22:03:12;;;;;;;0.10;0.10;;;;;;;;;;10397594;28;20014;-76
2023/08/01 22:08:12;;;;;;;0.10;0.10;;;;;;;;;;10391959;28;20021;-77
2023/08/01 22:13:13;;;;;;;0.00;0.00;;;;;;;;;;10371996;28;20049;-77
2023/08/01 22:18:23;;;;;;;0.00;0.00;;;;;;;;;;10391602;28;20021;-77
2023/08/01 22:23:23;;;;;;;0.10;0.10;;;;;;;;;;10375416;28;20022;-76
2023/08/01 22:28:23;;;;;;;0.10;0.10;;;;;;;;;;10386244;28;20025;-77
2023/08/01 22:33:23;;;;;;;0.10;0.10;;;;;;;;;;10386146;28;20107;-77
2023/08/01 22:38:24;;;;;;;0.10;0.10;;;;;;;;;;10389327;28;20025;-77
2023/08/01 22:43:24;;;;;;;0.00;0.00;;;;;;;;;;10402048;28;20024;-76
2023/08/01 22:48:24;;;;;;;0.00;0.00;;;;;;;;;;10408021;28;20025;-77
2023/08/01 22:53:24;;;;;;;0.10;0.10;;;;;;;;;;10413337;28;20448;-77
2023/08/01 22:58:25;;;;;;;0.05;0.05;;;;;;;;;;10398539;28;20393;-77
2023/08/01 23:03:26;;;;;;;0.10;0.10;;;;;;;;;;10403876;28;20017;-77
2023/08/01 23:08:26;;;;;;;0.00;0.00;;;;;;;;;;10385914;28;20025;-78
2023/08/01 23:13:27;;;;;;;0.10;0.10;;;;;;;;;;10400405;28;20074;-78
2023/08/01 23:18:27;;;;;;;0.00;0.00;;;;;;;;;;10408271;28;20021;-77
2023/08/01 23:23:28;;;;;;;0.10;0.10;;;;;;;;;;10407849;28;20071;-77
2023/08/01 23:28:28;;;;;;;0.10;0.10;;;;;;;;;;10413391;28;20025;-77
2023/08/01 23:33:28;;;;;;;0.10;0.10;;;;;;;;;;10401841;28;20018;-77
2023/08/01 23:38:29;;;;;;;0.10;0.10;;;;;;;;;;10395234;28;20362;-77
2023/08/01 23:43:29;;;;;;;0.10;0.10;;;;;;;;;;10402227;28;20056;-77
2023/08/01 23:48:29;;;;;;;0.10;0.10;;;;;;;;;;10403978;28;20039;-77
2023/08/01 23:53:30;;;;;;;0.10;0.10;;;;;;;;;;10376893;28;20025;-78
2023/08/01 23:58:30;;;;;;;0.10;0.10;;;;;;;;;;10404447;28;20053;-77
